createdAt,value
2023-01-05T00:00:32.537Z,0.10
2023-01-05T00:01:14.395Z,0.10
2023-01-05T00:01:56.224Z,0.10
2023-01-05T00:02:37.940Z,0.10
2023-01-05T00:03:19.971Z,0.10
2023-01-05T00:04:01.768Z,0.10
2023-01-05T00:04:45.132Z,0.10
2023-01-05T00:05:26.723Z,0.10
2023-01-05T00:06:12.537Z,0.10
2023-01-05T00:06:54.232Z,0.10
2023-01-05T00:07:35.902Z,0.10
2023-01-05T00:08:17.556Z,0.10
2023-01-05T00:08:59.923Z,0.10
2023-01-05T00:09:41.569Z,0.10
2023-01-05T00:10:41.815Z,0.20
2023-01-05T00:11:43.112Z,0.10
2023-01-05T00:12:51.108Z,0.10
2023-01-05T00:13:51.255Z,0.10
2023-01-05T00:14:52.969Z,0.10
2023-01-05T00:15:56.379Z,0.10
2023-01-05T00:16:56.822Z,0.00
2023-01-05T00:17:57.123Z,0.10
2023-01-05T00:18:57.173Z,0.10
2023-01-05T00:19:57.408Z,0.10
2023-01-05T00:20:57.473Z,0.10
2023-01-05T00:21:57.525Z,0.00
2023-01-05T00:22:57.569Z,0.10
2023-01-05T00:23:39.203Z,0.08
2023-01-05T00:24:20.827Z,0.10
2023-01-05T00:25:12.474Z,0.10
2023-01-05T00:25:54.502Z,0.10
2023-01-05T00:26:36.164Z,0.10
2023-01-05T00:27:17.850Z,0.10
2023-01-05T00:27:59.674Z,0.10
2023-01-05T00:28:41.325Z,0.10
2023-01-05T00:29:23.773Z,0.10
2023-01-05T00:30:07.121Z,0.20
2023-01-05T00:30:48.796Z,0.10
2023-01-05T00:31:30.488Z,0.10
2023-01-05T00:32:12.185Z,0.10
2023-01-05T00:32:54.205Z,0.10
2023-01-05T00:33:35.837Z,0.10
2023-01-05T00:34:17.455Z,0.10
2023-01-05T00:34:59.452Z,0.20
2023-01-05T00:35:41.185Z,0.10
2023-01-05T00:36:22.769Z,0.10
2023-01-05T00:37:04.379Z,0.10
2023-01-05T00:37:47.288Z,0.10
2023-01-05T00:38:28.917Z,0.10
2023-01-05T00:39:10.491Z,0.20
2023-01-05T00:39:53.839Z,0.10
2023-01-05T00:40:36.545Z,0.20
2023-01-05T00:41:18.247Z,0.10
2023-01-05T00:42:00.046Z,0.10
2023-01-05T00:42:42.009Z,0.10
2023-01-05T00:43:24.937Z,0.10
2023-01-05T00:44:06.722Z,0.15
2023-01-05T00:44:48.379Z,0.17
2023-01-05T00:45:30.113Z,0.10
2023-01-05T00:46:11.842Z,0.10
2023-01-05T00:46:54.196Z,0.10
2023-01-05T00:47:35.855Z,0.10
2023-01-05T00:48:17.539Z,0.10
2023-01-05T00:48:59.136Z,0.10
2023-01-05T00:49:41.005Z,0.10
2023-01-05T00:50:22.957Z,0.10
2023-01-05T00:51:04.770Z,0.10
2023-01-05T00:51:46.703Z,0.10
2023-01-05T00:52:28.332Z,0.10
2023-01-05T00:53:12.536Z,0.10
2023-01-05T00:53:54.128Z,0.10
2023-01-05T00:54:35.735Z,0.10
2023-01-05T00:55:17.722Z,0.20
2023-01-05T00:55:59.917Z,0.20
2023-01-05T00:56:41.515Z,0.30
2023-01-05T00:57:23.195Z,0.20
2023-01-05T00:58:07.591Z,0.20
2023-01-05T00:58:54.409Z,0.10
2023-01-05T00:59:36.180Z,0.10
2023-01-05T01:00:19.583Z,0.10
2023-01-05T01:01:01.632Z,0.10
2023-01-05T01:01:50.661Z,0.10
2023-01-05T01:02:32.656Z,0.17
2023-01-05T01:03:14.455Z,0.10
2023-01-05T01:03:56.387Z,0.20
2023-01-05T01:04:38.346Z,0.20
2023-01-05T01:05:20.041Z,0.17
2023-01-05T01:06:01.725Z,0.20
2023-01-05T01:06:43.563Z,0.13
2023-01-05T01:07:26.013Z,0.20
2023-01-05T01:08:07.627Z,0.38
2023-01-05T01:08:49.434Z,0.30
2023-01-05T01:09:31.897Z,0.15
2023-01-05T01:10:13.634Z,0.20
2023-01-05T01:10:55.270Z,0.15
2023-01-05T01:11:37.067Z,0.10
2023-01-05T01:12:18.727Z,0.10
2023-01-05T01:13:00.354Z,0.10
2023-01-05T01:13:44.155Z,0.10
2023-01-05T01:14:26.521Z,0.10
2023-01-05T01:15:09.150Z,0.20
2023-01-05T01:15:50.796Z,0.10
2023-01-05T01:16:33.074Z,0.20
2023-01-05T01:17:15.726Z,0.20
2023-01-05T01:17:57.414Z,0.17
2023-01-05T01:18:40.799Z,0.30
2023-01-05T01:19:24.988Z,0.20
2023-01-05T01:20:07.226Z,0.10
2023-01-05T01:20:49.165Z,0.10
2023-01-05T01:21:30.812Z,0.10
2023-01-05T01:22:13.113Z,0.10
2023-01-05T01:22:54.708Z,0.20
2023-01-05T01:23:37.811Z,0.10
2023-01-05T01:24:25.676Z,0.20
2023-01-05T01:25:07.645Z,0.10
2023-01-05T01:25:49.284Z,0.10
2023-01-05T01:26:30.989Z,0.20
2023-01-05T01:27:12.642Z,0.10
2023-01-05T01:27:54.506Z,0.10
2023-01-05T01:28:36.249Z,0.10
2023-01-05T01:29:18.482Z,0.10
2023-01-05T01:30:00.211Z,0.10
2023-01-05T01:30:41.890Z,0.10
2023-01-05T01:31:24.083Z,0.10
2023-01-05T01:32:05.850Z,0.15
2023-01-05T01:32:47.624Z,0.20
2023-01-05T01:33:29.849Z,0.10
2023-01-05T01:34:11.607Z,0.20
2023-01-05T01:34:55.131Z,0.10
2023-01-05T01:35:39.445Z,0.15
2023-01-05T01:36:21.277Z,0.10
2023-01-05T01:37:48.251Z,0.20
2023-01-05T01:38:29.962Z,0.10
2023-01-05T01:39:12.545Z,0.10
2023-01-05T01:39:57.128Z,0.10
2023-01-05T01:40:44.116Z,0.10
2023-01-05T01:41:26.616Z,0.10
2023-01-05T01:42:14.416Z,0.10
2023-01-05T01:42:57.339Z,0.10
2023-01-05T01:43:50.824Z,0.10
2023-01-05T01:44:59.039Z,0.10
2023-01-05T01:45:46.804Z,0.10
2023-01-05T01:46:29.156Z,0.10
2023-01-05T01:47:15.543Z,0.20
2023-01-05T01:48:00.244Z,0.10
2023-01-05T01:48:47.314Z,0.10
2023-01-05T01:49:28.930Z,0.10
2023-01-05T01:50:22.147Z,0.10
2023-01-05T01:51:10.824Z,0.10
2023-01-05T01:51:52.436Z,0.10
2023-01-05T01:52:35.192Z,0.13
2023-01-05T01:53:28.315Z,0.10
2023-01-05T01:54:14.408Z,0.10
2023-01-05T01:54:56.772Z,0.10
2023-01-05T01:55:39.589Z,0.20
2023-01-05T01:56:24.346Z,0.10
2023-01-05T01:57:09.618Z,0.20
2023-01-05T01:57:51.835Z,0.10
2023-01-05T01:58:34.144Z,0.13
2023-01-05T01:59:17.315Z,0.20
2023-01-05T02:00:02.562Z,0.20
2023-01-05T02:00:47.511Z,0.10
2023-01-05T02:01:29.620Z,0.10
2023-01-05T02:02:12.728Z,0.10
2023-01-05T02:02:56.140Z,0.20
2023-01-05T02:03:38.817Z,0.10
2023-01-05T02:04:23.612Z,0.10
2023-01-05T02:05:09.222Z,0.10
2023-01-05T02:05:50.849Z,0.10
2023-01-05T02:06:32.693Z,0.10
2023-01-05T02:07:16.146Z,0.20
2023-01-05T02:07:57.944Z,0.10
2023-01-05T02:08:39.775Z,0.20
2023-01-05T02:09:21.557Z,0.20
2023-01-05T02:10:04.617Z,0.10
2023-01-05T02:11:12.319Z,0.20
2023-01-05T02:12:23.216Z,0.10
2023-01-05T02:13:16.583Z,0.20
2023-01-05T02:14:45.687Z,0.20
2023-01-05T02:16:07.691Z,0.10
2023-01-05T02:17:01.949Z,0.20
2023-01-05T02:18:06.896Z,0.10
2023-01-05T02:19:13.378Z,0.10
2023-01-05T02:20:33.764Z,0.28
2023-01-05T02:21:22.181Z,0.20
2023-01-05T02:22:26.171Z,0.10
2023-01-05T02:23:26.623Z,0.25
2023-01-05T02:24:50.756Z,0.10
2023-01-05T02:25:54.839Z,0.10
2023-01-05T02:27:01.039Z,0.20
2023-01-05T02:28:09.354Z,0.20
2023-01-05T02:29:02.822Z,0.13
2023-01-05T02:30:20.607Z,0.10
2023-01-05T02:31:47.274Z,0.20
2023-01-05T02:32:39.981Z,0.10
2023-01-05T02:33:32.517Z,0.20
2023-01-05T02:34:28.902Z,0.20
2023-01-05T02:35:21.233Z,0.20
2023-01-05T02:36:30.389Z,0.20
2023-01-05T02:37:30.887Z,0.10
2023-01-05T02:39:13.911Z,0.10
2023-01-05T02:40:04.921Z,0.17
2023-01-05T02:40:57.256Z,0.10
2023-01-05T02:42:13.130Z,0.10
2023-01-05T02:42:57.988Z,0.20
2023-01-05T02:43:39.944Z,0.10
2023-01-05T02:44:21.846Z,0.10
2023-01-05T02:45:08.447Z,0.17
2023-01-05T02:45:50.182Z,0.20
2023-01-05T02:46:31.859Z,0.10
2023-01-05T02:47:25.644Z,0.20
2023-01-05T02:48:07.339Z,0.10
2023-01-05T02:48:53.128Z,0.10
2023-01-05T02:49:40.850Z,0.20
2023-01-05T02:50:32.213Z,0.10
2023-01-05T02:51:24.958Z,0.10
2023-01-05T02:52:09.683Z,0.10
2023-01-05T02:53:00.338Z,0.10
2023-01-05T02:53:48.748Z,0.17
2023-01-05T02:54:38.614Z,0.10
2023-01-05T02:55:26.373Z,0.00
2023-01-05T02:56:18.012Z,0.10
2023-01-05T02:57:08.060Z,0.10
2023-01-05T02:58:14.322Z,0.10
2023-01-05T02:59:02.816Z,0.10
2023-01-05T02:59:51.003Z,0.10
2023-01-05T03:00:41.128Z,0.35
2023-01-05T03:01:25.766Z,0.10
2023-01-05T03:02:20.856Z,0.03
2023-01-05T03:03:25.656Z,0.10
2023-01-05T03:04:21.968Z,0.10
2023-01-05T03:05:17.379Z,0.10
2023-01-05T03:06:10.466Z,0.10
2023-01-05T03:07:01.967Z,0.10
2023-01-05T03:07:46.925Z,0.10
2023-01-05T03:08:33.526Z,0.10
2023-01-05T03:09:20.049Z,0.17
2023-01-05T03:10:25.718Z,0.10
2023-01-05T03:11:29.558Z,0.10
2023-01-05T03:12:36.308Z,0.08
2023-01-05T03:13:37.481Z,0.10
2023-01-05T03:14:36.835Z,0.10
2023-01-05T03:15:25.022Z,0.10
2023-01-05T03:16:16.348Z,0.10
2023-01-05T03:17:01.301Z,0.10
2023-01-05T03:17:49.834Z,0.10
2023-01-05T03:18:33.948Z,0.10
2023-01-05T03:19:55.171Z,0.10
2023-01-05T03:20:43.250Z,0.10
2023-01-05T03:21:27.260Z,0.10
2023-01-05T03:22:40.541Z,0.10
2023-01-05T03:23:42.320Z,0.10
2023-01-05T03:24:42.823Z,0.10
2023-01-05T03:25:46.117Z,0.22
2023-01-05T03:26:48.212Z,0.10
2023-01-05T03:27:50.145Z,0.10
2023-01-05T03:28:56.361Z,0.10
2023-01-05T03:30:01.152Z,0.15
2023-01-05T03:31:13.828Z,0.10
2023-01-05T03:32:30.233Z,0.10
2023-01-05T03:33:49.656Z,0.10
2023-01-05T03:35:13.953Z,0.10
2023-01-05T03:35:58.816Z,0.10
2023-01-05T03:36:49.202Z,0.10
2023-01-05T03:37:37.147Z,0.10
2023-01-05T03:38:25.588Z,0.10
2023-01-05T03:39:09.606Z,0.10
2023-01-05T03:39:52.232Z,0.10
2023-01-05T03:40:37.809Z,0.10
2023-01-05T03:41:20.480Z,0.10
2023-01-05T03:42:02.663Z,0.10
2023-01-05T03:42:46.434Z,0.10
2023-01-05T03:43:28.507Z,0.10
2023-01-05T03:44:10.482Z,0.10
2023-01-05T03:44:54.915Z,0.05
2023-01-05T03:45:41.341Z,0.10
2023-01-05T03:46:28.165Z,0.10
2023-01-05T03:47:09.876Z,0.20
2023-01-05T03:47:51.954Z,0.10
2023-01-05T03:48:38.855Z,0.10
2023-01-05T03:49:21.436Z,0.10
2023-01-05T03:50:05.547Z,0.10
2023-01-05T03:50:47.446Z,0.20
2023-01-05T03:51:32.133Z,0.10
2023-01-05T03:52:16.640Z,0.10
2023-01-05T03:52:58.384Z,0.10
2023-01-05T03:53:44.142Z,0.13
2023-01-05T03:54:25.818Z,0.10
2023-01-05T03:55:07.874Z,0.10
2023-01-05T03:55:49.586Z,0.00
2023-01-05T03:56:31.531Z,0.10
2023-01-05T03:57:13.420Z,0.13
2023-01-05T03:57:55.175Z,0.13
2023-01-05T03:58:37.077Z,0.10
2023-01-05T03:59:19.322Z,0.10
2023-01-05T04:00:02.388Z,0.10
2023-01-05T04:00:45.581Z,0.10
2023-01-05T04:01:29.318Z,0.08
2023-01-05T04:02:11.233Z,0.03
2023-01-05T04:02:53.665Z,0.10
2023-01-05T04:03:37.216Z,0.10
2023-01-05T04:04:21.273Z,0.10
2023-01-05T04:05:03.172Z,0.10
2023-01-05T04:05:45.355Z,0.10
2023-01-05T04:06:27.332Z,0.10
2023-01-05T04:07:08.925Z,0.17
2023-01-05T04:07:51.070Z,0.10
2023-01-05T04:08:32.684Z,0.10
2023-01-05T04:09:15.060Z,0.10
2023-01-05T04:09:58.388Z,0.20
2023-01-05T04:10:40.494Z,0.10
2023-01-05T04:11:24.517Z,0.17
2023-01-05T04:12:19.061Z,0.10
2023-01-05T04:13:00.907Z,0.10
2023-01-05T04:13:42.918Z,0.10
2023-01-05T04:14:25.004Z,0.10
2023-01-05T04:15:08.173Z,0.13
2023-01-05T04:15:49.936Z,0.20
2023-01-05T04:16:31.722Z,0.00
2023-01-05T04:17:16.355Z,0.10
2023-01-05T04:17:58.012Z,0.10
2023-01-05T04:18:40.183Z,0.10
2023-01-05T04:19:24.145Z,0.10
2023-01-05T04:20:08.603Z,0.10
2023-01-05T04:20:51.003Z,0.10
2023-01-05T04:21:32.831Z,0.10
2023-01-05T04:22:15.412Z,0.10
2023-01-05T04:22:58.654Z,0.20
2023-01-05T04:23:41.159Z,0.10
2023-01-05T04:24:23.589Z,0.10
2023-01-05T04:25:05.616Z,0.10
2023-01-05T04:25:47.867Z,0.10
2023-01-05T04:26:34.652Z,0.10
2023-01-05T04:27:16.301Z,0.10
2023-01-05T04:27:58.929Z,0.10
2023-01-05T04:28:43.800Z,0.10
2023-01-05T04:29:26.271Z,0.10
2023-01-05T04:30:09.957Z,0.10
2023-01-05T04:30:54.708Z,0.08
2023-01-05T04:31:38.470Z,0.10
2023-01-05T04:32:21.136Z,0.13
2023-01-05T04:33:02.895Z,0.10
2023-01-05T04:33:45.458Z,0.13
2023-01-05T04:34:31.239Z,0.10
2023-01-05T04:35:14.999Z,0.20
2023-01-05T04:35:57.263Z,0.10
2023-01-05T04:36:42.346Z,0.10
2023-01-05T04:37:28.520Z,0.03
2023-01-05T04:38:11.224Z,0.10
2023-01-05T04:38:53.117Z,0.10
2023-01-05T04:39:35.693Z,0.15
2023-01-05T04:40:17.525Z,0.10
2023-01-05T04:41:04.956Z,0.00
2023-01-05T04:41:48.576Z,0.10
2023-01-05T04:42:32.111Z,0.20
2023-01-05T04:43:13.757Z,0.10
2023-01-05T04:43:55.367Z,0.10
2023-01-05T04:44:38.632Z,0.10
2023-01-05T04:45:21.386Z,0.10
2023-01-05T04:46:03.905Z,0.10
2023-01-05T04:46:46.077Z,0.03
2023-01-05T04:47:28.426Z,0.10
2023-01-05T04:48:10.962Z,0.30
2023-01-05T04:48:54.157Z,0.32
2023-01-05T04:49:36.719Z,0.10
2023-01-05T04:50:20.185Z,0.10
2023-01-05T04:51:03.637Z,0.10
2023-01-05T04:51:48.921Z,0.10
2023-01-05T04:52:30.830Z,0.08
2023-01-05T04:53:12.412Z,0.10
2023-01-05T04:53:56.034Z,0.00
2023-01-05T04:54:39.436Z,0.10
2023-01-05T04:55:23.048Z,0.10
2023-01-05T04:56:05.781Z,0.10
2023-01-05T04:56:53.545Z,0.10
2023-01-05T04:57:35.730Z,0.00
2023-01-05T04:58:17.477Z,0.10
2023-01-05T04:58:59.114Z,0.10
2023-01-05T04:59:40.785Z,0.10
2023-01-05T05:00:22.984Z,0.10
2023-01-05T05:01:06.369Z,0.10
2023-01-05T05:01:50.298Z,0.10
2023-01-05T05:02:32.404Z,0.10
2023-01-05T05:03:14.787Z,0.10
2023-01-05T05:03:56.477Z,0.10
2023-01-05T05:04:39.824Z,0.00
2023-01-05T05:05:21.502Z,0.10
2023-01-05T05:06:06.934Z,0.10
2023-01-05T05:06:48.539Z,0.10
2023-01-05T05:07:30.735Z,0.10
2023-01-05T05:08:14.512Z,0.10
2023-01-05T05:08:56.370Z,0.13
2023-01-05T05:09:40.025Z,0.10
2023-01-05T05:10:21.804Z,0.30
2023-01-05T05:11:04.237Z,0.10
2023-01-05T05:11:48.496Z,0.10
2023-01-05T05:12:30.211Z,0.00
2023-01-05T05:13:11.905Z,0.03
2023-01-05T05:13:54.070Z,0.20
2023-01-05T05:14:35.881Z,0.13
2023-01-05T05:15:17.989Z,0.10
2023-01-05T05:16:03.757Z,0.15
2023-01-05T05:16:47.276Z,0.10
2023-01-05T05:17:28.999Z,0.10
2023-01-05T05:18:11.039Z,0.10
2023-01-05T05:18:54.234Z,0.20
2023-01-05T05:19:39.766Z,0.10
2023-01-05T05:20:21.558Z,0.10
2023-01-05T05:21:08.410Z,0.10
2023-01-05T05:21:51.517Z,0.10
2023-01-05T05:22:33.400Z,0.10
2023-01-05T05:23:16.719Z,0.10
2023-01-05T05:23:58.317Z,0.10
2023-01-05T05:24:40.096Z,0.10
2023-01-05T05:25:23.185Z,0.10
2023-01-05T05:26:05.633Z,0.10
2023-01-05T05:26:48.219Z,0.13
2023-01-05T05:27:29.814Z,0.10
2023-01-05T05:28:11.382Z,0.10
2023-01-05T05:28:53.105Z,0.10
2023-01-05T05:29:34.733Z,0.13
2023-01-05T05:30:16.522Z,0.10
2023-01-05T05:30:58.562Z,0.10
2023-01-05T05:31:40.716Z,0.10
2023-01-05T05:32:22.515Z,0.10
2023-01-05T05:33:04.231Z,0.10
2023-01-05T05:33:45.981Z,0.10
2023-01-05T05:34:27.718Z,0.10
2023-01-05T05:35:09.538Z,0.00
2023-01-05T05:35:51.362Z,0.10
2023-01-05T05:36:33.053Z,0.13
2023-01-05T05:37:14.701Z,0.10
2023-01-05T05:37:56.973Z,0.40
2023-01-05T05:38:38.723Z,0.20
2023-01-05T05:39:20.648Z,0.40
2023-01-05T05:40:02.382Z,0.20
2023-01-05T05:40:44.119Z,0.30
2023-01-05T05:41:25.891Z,0.32
2023-01-05T05:42:07.531Z,0.20
2023-01-05T05:42:49.147Z,0.77
2023-01-05T05:43:30.711Z,0.40
2023-01-05T05:44:12.325Z,0.25
2023-01-05T05:44:53.959Z,0.40
2023-01-05T05:45:35.628Z,0.40
2023-01-05T05:46:17.323Z,0.73
2023-01-05T05:46:59.136Z,0.47
2023-01-05T05:47:40.822Z,0.52
2023-01-05T05:48:22.474Z,0.60
2023-01-05T05:49:04.764Z,0.60
2023-01-05T05:49:46.428Z,0.63
2023-01-05T05:50:28.267Z,0.85
2023-01-05T05:51:10.062Z,0.70
2023-01-05T05:51:51.680Z,0.60
2023-01-05T05:52:33.302Z,0.70
2023-01-05T05:53:15.185Z,1.17
2023-01-05T05:53:56.903Z,0.77
2023-01-05T05:54:38.540Z,0.88
2023-01-05T05:55:20.169Z,1.10
2023-01-05T05:56:01.837Z,0.90
2023-01-05T05:56:43.490Z,1.13
2023-01-05T05:57:25.139Z,7.75
2023-01-05T05:58:07.063Z,1.13
2023-01-05T05:58:48.787Z,1.05
2023-01-05T05:59:30.457Z,1.00
2023-01-05T06:00:12.781Z,1.10
2023-01-05T06:00:58.883Z,0.60
2023-01-05T06:01:40.675Z,1.02
2023-01-05T06:02:22.575Z,1.10
2023-01-05T06:03:04.603Z,1.50
2023-01-05T06:03:46.368Z,1.05
2023-01-05T06:04:28.114Z,0.98
2023-01-05T06:05:09.753Z,0.77
2023-01-05T06:05:51.810Z,1.15
2023-01-05T06:06:33.408Z,0.90
2023-01-05T06:07:15.117Z,0.80
2023-01-05T06:07:56.692Z,1.35
2023-01-05T06:08:38.348Z,1.08
2023-01-05T06:09:20.035Z,0.73
2023-01-05T06:10:01.826Z,0.80
2023-01-05T06:10:43.424Z,0.95
2023-01-05T06:11:25.096Z,1.65
2023-01-05T06:12:07.336Z,0.85
2023-01-05T06:12:49.208Z,0.50
2023-01-05T06:13:30.916Z,1.00
2023-01-05T06:14:12.671Z,1.55
2023-01-05T06:14:54.322Z,1.52
2023-01-05T06:15:35.917Z,1.10
2023-01-05T06:16:17.615Z,1.63
2023-01-05T06:17:00.590Z,1.10
2023-01-05T06:17:42.266Z,1.10
2023-01-05T06:18:23.930Z,1.00
2023-01-05T06:19:05.581Z,1.23
2023-01-05T06:19:47.163Z,1.27
2023-01-05T06:20:28.758Z,1.20
2023-01-05T06:21:10.401Z,1.10
2023-01-05T06:21:52.179Z,1.00
2023-01-05T06:22:33.914Z,0.60
2023-01-05T06:23:15.548Z,0.80
2023-01-05T06:24:00.190Z,1.00
2023-01-05T06:24:43.578Z,1.35
2023-01-05T06:25:25.220Z,1.00
2023-01-05T06:26:06.897Z,1.27
2023-01-05T06:26:48.509Z,0.80
2023-01-05T06:27:30.230Z,1.10
2023-01-05T06:28:15.640Z,0.88
2023-01-05T06:29:00.218Z,1.27
2023-01-05T06:29:41.925Z,0.95
2023-01-05T06:30:23.553Z,1.27
2023-01-05T06:31:06.158Z,1.00
2023-01-05T06:31:47.790Z,1.30
2023-01-05T06:32:29.440Z,1.10
2023-01-05T06:33:11.035Z,1.08
2023-01-05T06:33:52.792Z,0.80
2023-01-05T06:34:34.367Z,1.15
2023-01-05T06:35:16.066Z,1.88
2023-01-05T06:36:00.608Z,0.80
2023-01-05T06:36:42.308Z,1.10
2023-01-05T06:37:23.901Z,1.52
2023-01-05T06:38:05.646Z,1.10
2023-01-05T06:38:47.429Z,0.80
2023-01-05T06:39:29.162Z,1.13
2023-01-05T06:40:11.874Z,1.27
2023-01-05T06:40:54.619Z,1.02
2023-01-05T06:41:36.295Z,1.10
2023-01-05T06:42:23.032Z,1.00
2023-01-05T06:43:05.158Z,1.45
2023-01-05T06:43:46.785Z,1.10
2023-01-05T06:44:28.442Z,1.40
2023-01-05T06:45:13.371Z,1.33
2023-01-05T06:45:55.038Z,1.30
2023-01-05T06:46:36.683Z,1.40
2023-01-05T06:47:19.018Z,1.13
2023-01-05T06:48:01.068Z,0.80
2023-01-05T06:48:42.712Z,1.20
2023-01-05T06:49:24.424Z,1.42
2023-01-05T06:50:07.025Z,1.00
2023-01-05T06:50:48.712Z,1.10
2023-01-05T06:51:30.437Z,1.17
2023-01-05T06:52:16.199Z,1.10
2023-01-05T06:52:58.964Z,1.52
2023-01-05T06:53:40.585Z,1.60
2023-01-05T06:54:22.274Z,1.60
2023-01-05T06:55:04.451Z,0.60
2023-01-05T06:55:46.085Z,1.00
2023-01-05T06:56:27.697Z,1.10
2023-01-05T06:57:09.434Z,1.15
2023-01-05T06:57:54.418Z,1.27
2023-01-05T06:58:40.365Z,1.00
2023-01-05T06:59:22.009Z,1.17
2023-01-05T07:00:09.819Z,1.38
2023-01-05T07:00:53.945Z,1.45
2023-01-05T07:01:36.136Z,1.17
2023-01-05T07:02:18.080Z,1.23
2023-01-05T07:02:59.753Z,1.33
2023-01-05T07:03:41.483Z,1.15
2023-01-05T07:04:23.296Z,2.13
2023-01-05T07:05:05.667Z,1.45
2023-01-05T07:05:47.242Z,1.20
2023-01-05T07:06:29.053Z,1.45
2023-01-05T07:07:14.604Z,1.30
2023-01-05T07:07:56.276Z,1.30
2023-01-05T07:08:37.861Z,1.48
2023-01-05T07:09:19.506Z,1.50
2023-01-05T07:10:01.240Z,1.67
2023-01-05T07:10:42.816Z,1.40
2023-01-05T07:11:24.433Z,1.52
2023-01-05T07:12:06.625Z,1.55
2023-01-05T07:12:48.213Z,1.23
2023-01-05T07:13:29.801Z,1.40
2023-01-05T07:14:11.429Z,1.25
2023-01-05T07:14:57.529Z,1.48
2023-01-05T07:15:39.687Z,1.83
2023-01-05T07:16:21.466Z,1.55
2023-01-05T07:17:03.382Z,1.13
2023-01-05T07:17:44.983Z,1.13
2023-01-05T07:18:26.558Z,1.60
2023-01-05T07:19:08.139Z,1.00
2023-01-05T07:19:49.788Z,1.00
2023-01-05T07:20:31.430Z,1.23
2023-01-05T07:21:13.014Z,1.45
2023-01-05T07:21:56.905Z,1.48
2023-01-05T07:22:38.820Z,1.35
2023-01-05T07:23:20.447Z,1.67
2023-01-05T07:24:02.080Z,1.17
2023-01-05T07:24:43.749Z,1.00
2023-01-05T07:25:31.143Z,1.30
2023-01-05T07:26:12.859Z,1.15
2023-01-05T07:26:54.478Z,1.33
2023-01-05T07:27:36.098Z,1.05
2023-01-05T07:28:17.671Z,1.45
2023-01-05T07:28:59.225Z,1.33
2023-01-05T07:29:40.886Z,0.93
2023-01-05T07:30:22.686Z,1.30
2023-01-05T07:31:07.187Z,1.30
2023-01-05T07:31:52.169Z,1.13
2023-01-05T07:32:33.957Z,1.40
2023-01-05T07:33:15.537Z,1.00
2023-01-05T07:33:57.121Z,1.30
2023-01-05T07:34:38.709Z,1.10
2023-01-05T07:35:20.352Z,1.30
2023-01-05T07:36:03.997Z,1.00
2023-01-05T07:36:45.621Z,1.35
2023-01-05T07:37:27.487Z,0.95
2023-01-05T07:38:09.251Z,0.95
2023-01-05T07:38:52.257Z,0.95
2023-01-05T07:39:33.990Z,1.30
2023-01-05T07:40:15.671Z,0.95
2023-01-05T07:41:01.306Z,1.10
2023-01-05T07:41:43.775Z,1.00
2023-01-05T07:42:26.128Z,1.40
2023-01-05T07:43:07.856Z,1.20
2023-01-05T07:43:50.032Z,1.25
2023-01-05T07:44:31.677Z,1.00
2023-01-05T07:45:13.336Z,1.00
2023-01-05T07:45:59.592Z,1.00
2023-01-05T07:46:41.272Z,1.02
2023-01-05T07:47:22.994Z,1.33
2023-01-05T07:48:04.715Z,1.00
2023-01-05T07:48:46.385Z,1.23
2023-01-05T07:49:29.349Z,1.33
2023-01-05T07:50:11.052Z,1.05
2023-01-05T07:50:53.303Z,1.15
2023-01-05T07:51:35.713Z,1.10
2023-01-05T07:52:17.752Z,0.98
2023-01-05T07:52:59.905Z,1.05
2023-01-05T07:53:44.597Z,1.45
2023-01-05T07:54:27.428Z,1.70
2023-01-05T07:55:09.656Z,1.10
2023-01-05T07:55:59.124Z,0.88
2023-01-05T07:56:40.842Z,1.20
2023-01-05T07:57:22.486Z,1.20
2023-01-05T07:58:04.114Z,1.50
2023-01-05T07:58:45.747Z,1.52
2023-01-05T07:59:28.298Z,1.05
2023-01-05T08:00:10.870Z,1.20
2023-01-05T08:00:56.169Z,1.48
2023-01-05T08:01:37.860Z,1.50
2023-01-05T08:02:20.515Z,1.20
2023-01-05T08:03:02.376Z,1.23
2023-01-05T08:03:44.577Z,1.20
2023-01-05T08:04:26.441Z,0.93
2023-01-05T08:05:08.837Z,1.00
2023-01-05T08:05:50.471Z,0.82
2023-01-05T08:06:33.327Z,1.15
2023-01-05T08:07:15.677Z,1.20
2023-01-05T08:07:57.310Z,1.20
2023-01-05T08:08:39.154Z,1.48
2023-01-05T08:09:39.791Z,0.80
2023-01-05T08:10:30.651Z,1.58
2023-01-05T08:11:17.009Z,1.33
2023-01-05T08:11:58.853Z,1.42
2023-01-05T08:13:00.494Z,1.40
2023-01-05T08:14:00.328Z,1.15
2023-01-05T08:14:42.021Z,1.17
2023-01-05T08:15:23.795Z,1.20
2023-01-05T08:16:05.982Z,1.20
2023-01-05T08:16:47.760Z,1.02
2023-01-05T08:17:29.413Z,1.10
2023-01-05T08:18:11.227Z,1.08
2023-01-05T08:18:54.550Z,1.10
2023-01-05T08:19:36.261Z,1.50
2023-01-05T08:20:18.215Z,1.52
2023-01-05T08:21:04.353Z,1.15
2023-01-05T08:21:46.022Z,1.20
2023-01-05T08:22:27.638Z,1.00
2023-01-05T08:23:09.381Z,1.25
2023-01-05T08:23:53.056Z,1.00
2023-01-05T08:24:34.829Z,1.02
2023-01-05T08:25:16.582Z,1.48
2023-01-05T08:26:02.795Z,1.13
2023-01-05T08:26:44.573Z,1.40
2023-01-05T08:27:26.402Z,1.17
2023-01-05T08:28:08.001Z,1.38
2023-01-05T08:28:50.953Z,1.13
2023-01-05T08:29:32.662Z,1.30
2023-01-05T08:30:14.802Z,1.38
2023-01-05T08:31:04.644Z,1.20
2023-01-05T08:31:46.394Z,1.15
2023-01-05T08:32:28.151Z,1.65
2023-01-05T08:33:10.264Z,1.27
2023-01-05T08:33:55.429Z,1.27
2023-01-05T08:34:37.224Z,1.10
2023-01-05T08:35:18.883Z,2.22
2023-01-05T08:36:00.718Z,1.30
2023-01-05T08:36:42.402Z,1.50
2023-01-05T08:37:24.061Z,1.48
2023-01-05T08:38:05.689Z,1.17
2023-01-05T08:38:50.738Z,1.20
2023-01-05T08:39:32.512Z,1.42
2023-01-05T08:40:14.281Z,1.10
2023-01-05T08:40:59.617Z,1.08
2023-01-05T08:41:41.330Z,1.10
2023-01-05T08:42:23.262Z,1.30
2023-01-05T08:43:06.350Z,1.60
2023-01-05T08:43:52.710Z,1.20
2023-01-05T08:44:34.400Z,1.48
2023-01-05T08:45:16.122Z,1.05
2023-01-05T08:45:57.884Z,1.65
2023-01-05T08:46:40.081Z,1.42
2023-01-05T08:47:26.538Z,1.00
2023-01-05T08:48:10.450Z,0.95
2023-01-05T08:48:54.648Z,1.30
2023-01-05T08:49:36.267Z,1.67
2023-01-05T08:50:17.950Z,1.35
2023-01-05T08:51:07.510Z,1.73
2023-01-05T08:51:49.179Z,1.52
2023-01-05T08:52:30.799Z,1.48
2023-01-05T08:53:12.521Z,1.58
2023-01-05T08:53:54.418Z,1.58
2023-01-05T08:54:36.087Z,1.23
2023-01-05T08:55:17.744Z,1.20
2023-01-05T08:55:59.459Z,0.98
2023-01-05T08:56:43.233Z,1.23
2023-01-05T08:57:24.865Z,1.45
2023-01-05T08:58:06.565Z,1.45
2023-01-05T08:58:48.180Z,1.42
2023-01-05T08:59:29.833Z,1.88
2023-01-05T09:00:14.164Z,1.80
2023-01-05T09:00:55.878Z,1.38
2023-01-05T09:01:37.627Z,1.50
2023-01-05T09:02:25.487Z,1.48
2023-01-05T09:03:08.950Z,1.98
2023-01-05T09:03:50.872Z,1.83
2023-01-05T09:04:32.516Z,1.30
2023-01-05T09:05:14.651Z,1.60
2023-01-05T09:05:59.360Z,1.35
2023-01-05T09:06:41.396Z,1.67
2023-01-05T09:07:23.296Z,1.67
2023-01-05T09:08:05.649Z,1.75
2023-01-05T09:08:47.715Z,1.08
2023-01-05T09:09:29.563Z,1.38
2023-01-05T09:10:11.564Z,1.30
2023-01-05T09:10:53.283Z,1.60
2023-01-05T09:11:35.082Z,4.50
2023-01-05T09:12:17.252Z,5.10
2023-01-05T09:12:59.016Z,4.50
2023-01-05T09:13:42.485Z,3.40
2023-01-05T09:14:24.183Z,1.77
2023-01-05T09:15:07.025Z,1.70
2023-01-05T09:15:51.072Z,1.27
2023-01-05T09:17:06.364Z,1.10
2023-01-05T09:17:37.204Z,1.33
2023-01-05T09:18:18.933Z,1.63
2023-01-05T09:19:02.925Z,1.40
2023-01-05T09:19:44.689Z,1.80
2023-01-05T09:20:26.351Z,1.20
2023-01-05T09:21:09.510Z,1.40
2023-01-05T09:22:03.691Z,1.52
2023-01-05T09:22:45.391Z,1.83
2023-01-05T09:23:27.332Z,1.30
2023-01-05T09:24:12.861Z,1.30
2023-01-05T09:24:54.618Z,1.42
2023-01-05T09:25:38.591Z,1.50
2023-01-05T09:26:20.589Z,1.83
2023-01-05T09:27:03.840Z,1.70
2023-01-05T09:27:45.464Z,1.80
2023-01-05T09:28:27.225Z,1.60
2023-01-05T09:29:10.591Z,1.30
2023-01-05T09:29:52.395Z,1.17
2023-01-05T09:30:41.910Z,1.73
2023-01-05T09:31:26.207Z,0.90
2023-01-05T09:32:08.144Z,1.42
2023-01-05T09:32:49.839Z,1.27
2023-01-05T09:33:31.485Z,1.00
2023-01-05T09:34:13.353Z,1.20
2023-01-05T09:34:55.008Z,1.60
2023-01-05T09:35:36.701Z,0.90
2023-01-05T09:36:19.108Z,1.58
2023-01-05T09:37:03.506Z,1.45
2023-01-05T09:37:45.290Z,1.10
2023-01-05T09:38:27.087Z,1.10
2023-01-05T09:39:10.079Z,1.42
2023-01-05T09:39:51.762Z,1.25
2023-01-05T09:40:39.970Z,1.30
2023-01-05T09:41:33.966Z,1.48
2023-01-05T09:42:19.197Z,1.77
2023-01-05T09:43:01.195Z,1.55
2023-01-05T09:43:44.335Z,1.58
2023-01-05T09:44:29.635Z,1.20
2023-01-05T09:45:12.668Z,1.20
2023-01-05T09:45:58.056Z,1.05
2023-01-05T09:46:43.744Z,1.40
2023-01-05T09:47:37.628Z,1.48
2023-01-05T09:48:20.309Z,1.25
2023-01-05T09:49:04.962Z,1.60
2023-01-05T09:49:49.828Z,1.20
2023-01-05T09:50:31.547Z,1.63
2023-01-05T09:51:14.023Z,1.88
2023-01-05T09:52:00.661Z,1.73
2023-01-05T09:52:42.388Z,1.55
2023-01-05T09:53:30.217Z,1.75
2023-01-05T09:54:17.458Z,1.80
2023-01-05T09:54:59.151Z,1.30
2023-01-05T09:55:42.749Z,1.50
2023-01-05T09:57:07.982Z,1.50
2023-01-05T09:57:34.204Z,1.15
2023-01-05T09:58:29.717Z,1.38
2023-01-05T09:59:21.185Z,1.45
2023-01-05T10:00:07.032Z,1.20